Time;durP1;ratioP1;P1;durP2;ratioP2;P2;SDS_P1;SDS_P2;PMS_P1;PMS_P2;Temp;Humidity;BMP_temperature;BMP_pressure;BME280_temperature;BME280_humidity;BME280_pressure;Samples;Min_cycle;Max_cycle;Signal;HPM_P1;HPM_P2
2021/04/14 00:01:56;;;;;;;19.98;19.73;;;;;;;;;;5051162;28;20068;-43
2021/04/14 00:04:23;;;;;;;21.63;21.23;;;;;;;;;;5050196;28;20052;-46
2021/04/14 00:06:50;;;;;;;23.05;22.75;;;;;;;;;;5045550;28;20121;-45
2021/04/14 00:09:16;;;;;;;21.15;20.85;;;;;;;;;;5048960;28;20041;-44
2021/04/14 00:11:42;;;;;;;22.95;22.60;;;;;;;;;;5049942;28;20040;-45
2021/04/14 00:14:09;;;;;;;23.50;23.10;;;;;;;;;;5051309;28;20119;-43
2021/04/14 00:16:36;;;;;;;23.63;23.23;;;;;;;;;;5048688;28;20044;-45
2021/04/14 00:19:03;;;;;;;21.70;21.35;;;;;;;;;;5050070;28;20037;-43
2021/04/14 00:21:30;;;;;;;23.73;23.30;;;;;;;;;;5049535;28;20033;-46
2021/04/14 00:23:57;;;;;;;23.40;22.98;;;;;;;;;;5049622;28;20112;-42
2021/04/14 00:26:23;;;;;;;22.10;21.80;;;;;;;;;;5049348;28;20116;-44
2021/04/14 00:28:49;;;;;;;23.83;23.42;;;;;;;;;;5051920;28;20049;-42
2021/04/14 00:31:16;;;;;;;25.17;24.33;;;;;;;;;;5053903;28;20046;-44
2021/04/14 00:33:42;;;;;;;22.20;21.80;;;;;;;;;;5055162;28;20072;-43
2021/04/14 00:36:09;;;;;;;23.05;22.75;;;;;;;;;;5032248;28;20033;-43
2021/04/14 00:38:39;;;;;;;20.35;20.05;;;;;;;;;;5046714;28;20044;-43
2021/04/14 00:41:07;;;;;;;24.90;24.48;;;;;;;;;;5053494;28;20052;-44
2021/04/14 00:43:35;;;;;;;21.63;21.00;;;;;;;;;;5053522;28;20046;-43
2021/04/14 00:46:02;;;;;;;25.23;24.48;;;;;;;;;;5054296;28;20068;-47
2021/04/14 00:48:29;;;;;;;23.45;22.73;;;;;;;;;;5052513;28;20286;-45
2021/04/14 00:50:55;;;;;;;24.20;23.38;;;;;;;;;;5053313;28;20416;-43
2021/04/14 00:53:21;;;;;;;24.27;23.73;;;;;;;;;;5053353;28;20065;-43
2021/04/14 00:55:48;;;;;;;26.08;25.25;;;;;;;;;;5054232;28;20398;-44
2021/04/14 00:58:14;;;;;;;22.02;21.73;;;;;;;;;;5053370;28;20052;-45
2021/04/14 01:00:42;;;;;;;25.77;24.88;;;;;;;;;;5052369;28;20076;-43
2021/04/14 01:03:15;;;;;;;21.98;21.42;;;;;;;;;;5052753;28;20040;-43
2021/04/14 01:05:42;;;;;;;24.80;23.77;;;;;;;;;;5052095;28;20038;-44
2021/04/14 01:08:08;;;;;;;25.20;24.70;;;;;;;;;;5053197;28;20041;-45
2021/04/14 01:10:34;;;;;;;24.15;23.70;;;;;;;;;;5051162;28;20041;-44
2021/04/14 01:13:01;;;;;;;25.27;24.77;;;;;;;;;;5052444;28;20379;-44
2021/04/14 01:15:32;;;;;;;25.27;24.80;;;;;;;;;;5052828;28;20033;-44
2021/04/14 01:17:59;;;;;;;26.67;26.00;;;;;;;;;;5052506;28;20036;-43
2021/04/14 01:20:26;;;;;;;23.02;22.45;;;;;;;;;;5052621;28;20079;-44
2021/04/14 01:22:52;;;;;;;23.85;23.20;;;;;;;;;;5053794;28;20047;-44
2021/04/14 01:25:24;;;;;;;23.98;23.38;;;;;;;;;;5052655;28;20041;-45
2021/04/14 01:27:50;;;;;;;23.95;23.40;;;;;;;;;;5045249;28;20433;-43
2021/04/14 01:30:19;;;;;;;23.25;22.85;;;;;;;;;;5052854;28;20596;-44
2021/04/14 01:32:45;;;;;;;23.63;23.23;;;;;;;;;;5045578;28;20098;-46
2021/04/14 01:35:13;;;;;;;23.83;23.33;;;;;;;;;;5054237;28;20041;-43
2021/04/14 01:37:40;;;;;;;26.33;25.80;;;;;;;;;;5051193;28;20464;-44
2021/04/14 01:40:07;;;;;;;22.33;21.92;;;;;;;;;;5051735;28;20119;-45
2021/04/14 01:42:33;;;;;;;25.27;24.77;;;;;;;;;;5053822;28;20045;-44
2021/04/14 01:45:00;;;;;;;24.63;24.05;;;;;;;;;;5050066;28;20036;-46
2021/04/14 01:47:26;;;;;;;23.48;23.02;;;;;;;;;;5053056;28;20041;-45
2021/04/14 01:49:52;;;;;;;25.25;24.67;;;;;;;;;;5052108;28;20457;-43
2021/04/14 01:52:18;;;;;;;21.52;21.23;;;;;;;;;;5050298;28;20137;-43
2021/04/14 01:54:44;;;;;;;25.27;24.88;;;;;;;;;;5053826;28;20404;-45
2021/04/14 01:57:10;;;;;;;22.98;22.67;;;;;;;;;;5049877;28;20367;-44
2021/04/14 01:59:37;;;;;;;25.13;24.63;;;;;;;;;;5053731;28;20131;-43
2021/04/14 02:02:04;;;;;;;22.65;22.35;;;;;;;;;;5032319;28;20049;-44
2021/04/14 02:04:31;;;;;;;23.60;23.30;;;;;;;;;;5052123;28;20037;-46
2021/04/14 02:06:57;;;;;;;22.88;22.48;;;;;;;;;;5052324;28;20132;-43
2021/04/14 02:09:23;;;;;;;23.80;23.50;;;;;;;;;;5052456;28;20052;-44
2021/04/14 02:11:50;;;;;;;22.55;22.25;;;;;;;;;;5037434;28;20491;-44
2021/04/14 02:14:16;;;;;;;26.48;25.98;;;;;;;;;;5051435;28;20234;-44
2021/04/14 02:16:42;;;;;;;23.08;22.65;;;;;;;;;;5051913;28;20162;-43
2021/04/14 02:19:10;;;;;;;24.75;24.35;;;;;;;;;;5032735;28;20049;-43
2021/04/14 02:21:36;;;;;;;21.70;21.27;;;;;;;;;;5053676;28;20040;-43
2021/04/14 02:24:02;;;;;;;27.95;27.35;;;;;;;;;;5051244;28;20033;-44
2021/04/14 02:26:29;;;;;;;26.70;26.25;;;;;;;;;;5045000;28;20044;-44
2021/04/14 02:28:56;;;;;;;26.70;26.30;;;;;;;;;;5043125;28;20389;-42
2021/04/14 02:31:30;;;;;;;26.77;26.23;;;;;;;;;;5045744;28;20038;-43
2021/04/14 02:34:01;;;;;;;26.92;26.42;;;;;;;;;;5048710;28;20052;-45
2021/04/14 02:36:29;;;;;;;25.45;25.05;;;;;;;;;;5047691;28;20124;-45
2021/04/14 02:38:55;;;;;;;23.08;22.77;;;;;;;;;;5051933;28;20405;-43
2021/04/14 02:41:21;;;;;;;23.90;23.50;;;;;;;;;;5050533;28;20040;-44
2021/04/14 02:43:48;;;;;;;24.67;24.27;;;;;;;;;;5052792;28;20037;-46
2021/04/14 02:46:15;;;;;;;25.55;25.15;;;;;;;;;;5051329;28;20068;-43
2021/04/14 02:48:41;;;;;;;25.17;24.77;;;;;;;;;;5052568;28;20116;-43
2021/04/14 02:51:08;;;;;;;26.27;25.67;;;;;;;;;;5042058;28;20053;-43
2021/04/14 02:53:34;;;;;;;26.83;26.33;;;;;;;;;;5043926;28;20037;-45
2021/04/14 02:56:00;;;;;;;27.52;27.02;;;;;;;;;;5048817;28;20098;-46
2021/04/14 02:58:27;;;;;;;25.23;24.73;;;;;;;;;;5028931;28;20509;-43
2021/04/14 03:00:53;;;;;;;27.85;27.17;;;;;;;;;;5041223;28;20041;-43
2021/04/14 03:03:20;;;;;;;24.25;23.88;;;;;;;;;;5051998;28;20041;-43
2021/04/14 03:05:46;;;;;;;28.63;28.13;;;;;;;;;;5048151;28;20049;-44
2021/04/14 03:08:13;;;;;;;28.13;27.55;;;;;;;;;;5052248;28;20053;-44
2021/04/14 03:10:39;;;;;;;26.73;26.02;;;;;;;;;;5049657;28;20086;-46
2021/04/14 03:13:06;;;;;;;27.75;27.02;;;;;;;;;;5044621;28;20055;-43
2021/04/14 03:15:35;;;;;;;27.70;27.05;;;;;;;;;;5052379;28;20049;-44
2021/04/14 03:18:01;;;;;;;24.48;23.65;;;;;;;;;;5051393;28;20432;-43
2021/04/14 03:20:28;;;;;;;27.65;27.15;;;;;;;;;;5057301;28;20037;-45
2021/04/14 03:22:56;;;;;;;26.02;25.52;;;;;;;;;;5049117;28;20594;-44
2021/04/14 03:25:24;;;;;;;26.50;26.00;;;;;;;;;;5032458;28;20041;-44
2021/04/14 03:27:50;;;;;;;26.42;26.02;;;;;;;;;;5042187;28;20060;-43
2021/04/14 03:30:17;;;;;;;27.90;27.38;;;;;;;;;;5050141;28;20072;-45
2021/04/14 03:32:43;;;;;;;29.08;28.48;;;;;;;;;;5051386;28;20524;-44
2021/04/14 03:35:10;;;;;;;26.10;25.70;;;;;;;;;;5048986;28;20072;-43
2021/04/14 03:37:36;;;;;;;26.30;25.80;;;;;;;;;;5050842;28;20079;-46
2021/04/14 03:40:03;;;;;;;26.83;26.42;;;;;;;;;;5053969;28;20769;-43
2021/04/14 03:42:30;;;;;;;25.67;25.23;;;;;;;;;;5047381;28;20037;-46
2021/04/14 03:44:58;;;;;;;28.73;28.23;;;;;;;;;;5041774;28;20049;-45
2021/04/14 03:47:24;;;;;;;28.73;28.23;;;;;;;;;;5050196;28;20032;-43
2021/04/14 03:49:51;;;;;;;27.55;27.08;;;;;;;;;;5050221;28;20037;-43
2021/04/14 03:52:17;;;;;;;25.15;24.75;;;;;;;;;;5050650;28;20056;-43
2021/04/14 03:54:44;;;;;;;28.80;28.20;;;;;;;;;;5050319;28;20103;-46
2021/04/14 03:57:28;;;;;;;28.10;27.50;;;;;;;;;;5049049;28;20045;-42
2021/04/14 03:59:54;;;;;;;27.92;27.33;;;;;;;;;;5049102;28;20099;-43
2021/04/14 04:02:20;;;;;;;27.15;26.55;;;;;;;;;;5051403;28;20053;-44
2021/04/14 04:04:46;;;;;;;27.38;26.88;;;;;;;;;;5055847;28;20041;-43
2021/04/14 04:07:13;;;;;;;24.13;23.63;;;;;;;;;;5053677;28;20485;-44
2021/04/14 04:09:39;;;;;;;28.27;27.77;;;;;;;;;;5053135;28;20033;-43
2021/04/14 04:12:08;;;;;;;28.23;27.73;;;;;;;;;;5043688;28;20497;-43
2021/04/14 04:14:45;;;;;;;27.92;27.42;;;;;;;;;;5053915;28;20428;-46
2021/04/14 04:17:12;;;;;;;28.42;27.63;;;;;;;;;;5054738;28;20063;-44
2021/04/14 04:19:39;;;;;;;30.63;29.85;;;;;;;;;;5057354;28;20064;-47
2021/04/14 04:22:06;;;;;;;29.25;28.58;;;;;;;;;;5051228;28;20061;-43
2021/04/14 04:24:32;;;;;;;28.33;27.73;;;;;;;;;;5056213;28;20033;-43
2021/04/14 04:26:58;;;;;;;26.75;26.27;;;;;;;;;;5048040;28;20038;-44
2021/04/14 04:29:25;;;;;;;27.63;27.13;;;;;;;;;;5048858;28;20061;-48
2021/04/14 04:31:52;;;;;;;26.88;26.27;;;;;;;;;;5054927;28;20043;-43
2021/04/14 04:34:19;;;;;;;29.58;28.80;;;;;;;;;;5052862;28;20041;-46
2021/04/14 04:36:45;;;;;;;27.98;27.23;;;;;;;;;;5054199;28;20043;-43
2021/04/14 04:39:11;;;;;;;28.02;27.30;;;;;;;;;;5053196;28;20427;-43
2021/04/14 04:41:38;;;;;;;28.48;27.67;;;;;;;;;;5056354;28;20049;-45
2021/04/14 04:44:04;;;;;;;30.92;30.02;;;;;;;;;;5052941;28;20038;-44
2021/04/14 04:46:30;;;;;;;28.33;27.73;;;;;;;;;;5049795;28;20060;-45
2021/04/14 04:48:56;;;;;;;27.45;26.95;;;;;;;;;;5054001;28;20049;-45
2021/04/14 04:51:22;;;;;;;29.35;28.60;;;;;;;;;;5052835;28;20138;-44
2021/04/14 04:53:49;;;;;;;27.02;26.52;;;;;;;;;;5051136;28;20103;-46
2021/04/14 04:56:16;;;;;;;31.35;30.55;;;;;;;;;;5055086;28;20057;-45
2021/04/14 04:58:42;;;;;;;27.98;27.42;;;;;;;;;;5051823;28;20048;-44
2021/04/14 05:01:09;;;;;;;27.08;26.55;;;;;;;;;;5044494;28;20382;-43
2021/04/14 05:03:39;;;;;;;27.55;27.05;;;;;;;;;;5046432;28;20041;-44
2021/04/14 05:06:05;;;;;;;27.70;27.10;;;;;;;;;;5044091;28;20094;-44
2021/04/14 05:08:32;;;;;;;31.13;29.83;;;;;;;;;;5054596;28;20094;-44
2021/04/14 05:10:58;;;;;;;28.88;28.17;;;;;;;;;;5052516;28;20033;-45
2021/04/14 05:13:24;;;;;;;30.17;29.27;;;;;;;;;;5053596;28;20099;-45
2021/04/14 05:15:50;;;;;;;31.13;30.15;;;;;;;;;;5052872;28;20037;-43
2021/04/14 05:18:17;;;;;;;29.00;28.38;;;;;;;;;;5051898;28;20045;-43
2021/04/14 05:20:43;;;;;;;27.67;26.92;;;;;;;;;;5067867;28;20086;-44
2021/04/14 05:23:10;;;;;;;27.75;27.23;;;;;;;;;;5030873;28;20408;-44
2021/04/14 05:25:38;;;;;;;26.95;26.33;;;;;;;;;;5050930;28;20043;-43
2021/04/14 05:28:08;;;;;;;29.30;28.40;;;;;;;;;;5054201;28;20041;-42
2021/04/14 05:30:35;;;;;;;27.85;27.25;;;;;;;;;;5052501;28;20039;-46
2021/04/14 05:33:02;;;;;;;27.77;27.15;;;;;;;;;;5053443;28;20513;-46
2021/04/14 05:35:29;;;;;;;29.33;28.13;;;;;;;;;;5051960;28;20374;-44
2021/04/14 05:37:55;;;;;;;26.75;26.25;;;;;;;;;;5054116;28;20488;-43
2021/04/14 05:40:24;;;;;;;25.85;25.27;;;;;;;;;;5060036;28;20136;-44
2021/04/14 05:42:51;;;;;;;25.90;25.50;;;;;;;;;;5058291;28;20041;-44
2021/04/14 05:45:26;;;;;;;25.77;25.08;;;;;;;;;;5053176;28;20041;-44
2021/04/14 05:47:53;;;;;;;24.55;24.02;;;;;;;;;;5051237;28;20438;-46
2021/04/14 05:50:22;;;;;;;29.92;28.85;;;;;;;;;;5033814;28;20065;-43
2021/04/14 05:52:48;;;;;;;25.70;25.10;;;;;;;;;;5037107;28;20098;-44
2021/04/14 05:55:15;;;;;;;26.90;26.15;;;;;;;;;;5051946;28;20061;-45
2021/04/14 05:57:41;;;;;;;27.75;26.45;;;;;;;;;;5054145;28;20461;-44
2021/04/14 06:00:09;;;;;;;25.23;24.50;;;;;;;;;;5034557;28;20052;-43
2021/04/14 06:02:36;;;;;;;25.50;25.00;;;;;;;;;;5053139;28;20041;-43
2021/04/14 06:05:03;;;;;;;26.30;25.77;;;;;;;;;;5053057;28;20071;-43
2021/04/14 06:07:30;;;;;;;27.67;26.65;;;;;;;;;;5051320;28;20048;-44
2021/04/14 06:09:56;;;;;;;25.27;24.88;;;;;;;;;;5034707;28;22191;-44
2021/04/14 06:12:23;;;;;;;24.20;23.58;;;;;;;;;;5053515;28;20044;-45
2021/04/14 06:14:49;;;;;;;25.13;24.55;;;;;;;;;;5051934;28;20087;-45
2021/04/14 06:17:15;;;;;;;25.70;25.20;;;;;;;;;;5052615;28;20385;-43
2021/04/14 06:19:43;;;;;;;24.58;24.00;;;;;;;;;;5051182;28;20033;-43
2021/04/14 06:22:10;;;;;;;24.08;23.70;;;;;;;;;;5052096;28;20059;-45
2021/04/14 06:24:36;;;;;;;23.92;23.42;;;;;;;;;;5052629;28;20044;-47
2021/04/14 06:27:05;;;;;;;25.42;24.90;;;;;;;;;;5051191;28;20374;-46
2021/04/14 06:29:32;;;;;;;24.45;23.88;;;;;;;;;;5053674;28;20673;-44
2021/04/14 06:31:59;;;;;;;25.00;24.60;;;;;;;;;;5051108;28;20032;-44
2021/04/14 06:34:26;;;;;;;23.40;22.90;;;;;;;;;;5050150;28;20119;-45
2021/04/14 06:36:56;;;;;;;23.67;23.08;;;;;;;;;;5053065;28;20044;-44
2021/04/14 06:39:25;;;;;;;25.17;24.65;;;;;;;;;;5049909;28;20044;-43
2021/04/14 06:44:48;;;;;;;23.98;23.23;;;;;;;;;;5051867;28;20033;-43
2021/04/14 06:47:22;;;;;;;23.00;22.50;;;;;;;;;;5032124;28;20038;-46
2021/04/14 06:49:56;;;;;;;21.52;21.23;;;;;;;;;;5051730;28;20029;-43
2021/04/14 06:52:28;;;;;;;21.83;21.38;;;;;;;;;;5049703;28;20037;-45
2021/04/14 06:54:54;;;;;;;16.48;16.27;;;;;;;;;;5051288;28;20124;-44
2021/04/14 06:57:22;;;;;;;13.40;13.20;;;;;;;;;;5052708;28;20059;-46
2021/04/14 06:59:53;;;;;;;17.45;17.08;;;;;;;;;;5050470;28;20041;-43
2021/04/14 07:02:26;;;;;;;6.72;6.53;;;;;;;;;;5052467;28;20041;-43
2021/04/14 07:04:57;;;;;;;4.57;4.47;;;;;;;;;;5051096;28;20124;-47
2021/04/14 07:07:25;;;;;;;8.55;8.15;;;;;;;;;;5049215;28;20033;-43
2021/04/14 07:09:53;;;;;;;6.10;5.85;;;;;;;;;;5052688;28;20041;-43
2021/04/14 07:12:21;;;;;;;4.60;4.50;;;;;;;;;;5049958;28;20083;-43
2021/04/14 07:14:49;;;;;;;5.93;5.82;;;;;;;;;;5032272;28;20037;-43
2021/04/14 07:17:18;;;;;;;5.90;5.80;;;;;;;;;;5051164;28;20037;-43
2021/04/14 07:19:54;;;;;;;5.28;5.18;;;;;;;;;;5051332;28;20377;-43
2021/04/14 07:22:26;;;;;;;4.03;3.92;;;;;;;;;;5050885;28;20107;-44
2021/04/14 07:24:55;;;;;;;3.15;3.05;;;;;;;;;;5050557;28;20041;-45
2021/04/14 07:27:27;;;;;;;2.28;2.28;;;;;;;;;;5050957;28;20040;-44
2021/04/14 07:30:14;;;;;;;4.22;4.13;;;;;;;;;;5051294;28;20159;-45
2021/04/14 07:32:40;;;;;;;3.38;3.38;;;;;;;;;;4990648;28;20061;-43
2021/04/14 07:35:11;;;;;;;7.30;7.10;;;;;;;;;;4988693;28;20070;-45
2021/04/14 07:37:43;;;;;;;3.15;2.95;;;;;;;;;;4989672;28;20068;-44
2021/04/14 07:40:10;;;;;;;2.58;2.58;;;;;;;;;;4990862;28;20053;-44
2021/04/14 07:42:55;;;;;;;3.17;2.97;;;;;;;;;;4990462;28;20064;-44
2021/04/14 07:45:27;;;;;;;2.00;2.00;;;;;;;;;;4991440;28;20042;-44
2021/04/14 07:48:04;;;;;;;1.90;1.80;;;;;;;;;;4989382;28;20073;-43
2021/04/14 07:50:56;;;;;;;1.90;1.80;;;;;;;;;;4989981;28;20646;-43
2021/04/14 07:53:24;;;;;;;1.70;1.60;;;;;;;;;;4965600;28;20054;-43
2021/04/14 07:56:08;;;;;;;3.20;3.20;;;;;;;;;;4970166;28;20439;-44
2021/04/14 07:58:36;;;;;;;1.70;1.70;;;;;;;;;;4987715;28;20195;-45
2021/04/14 08:01:13;;;;;;;1.80;1.70;;;;;;;;;;4971308;28;20147;-46
2021/04/14 08:03:39;;;;;;;1.70;1.60;;;;;;;;;;4970965;28;20043;-43
2021/04/14 08:06:10;;;;;;;1.52;1.52;;;;;;;;;;4971210;28;20050;-44
2021/04/14 08:08:36;;;;;;;1.48;1.48;;;;;;;;;;4973162;28;20042;-44
2021/04/14 08:11:09;;;;;;;1.67;1.50;;;;;;;;;;5027182;28;20514;-44
2021/04/14 08:13:40;;;;;;;1.30;1.30;;;;;;;;;;5029400;28;20037;-43
2021/04/14 08:16:16;;;;;;;1.38;1.38;;;;;;;;;;5028497;28;20089;-43
2021/04/14 08:18:51;;;;;;;1.40;1.30;;;;;;;;;;5029949;28;20084;-45
2021/04/14 08:21:25;;;;;;;1.60;1.60;;;;;;;;;;5029375;28;20537;-43
2021/04/14 08:24:23;;;;;;;1.25;1.25;;;;;;;;;;5030211;28;20402;-44
2021/04/14 08:26:54;;;;;;;1.30;1.20;;;;;;;;;;5023157;28;20103;-43
2021/04/14 08:29:20;;;;;;;1.20;1.10;;;;;;;;;;5029823;28;20041;-44
2021/04/14 08:31:48;;;;;;;2.30;2.30;;;;;;;;;;5028315;28;20493;-44
2021/04/14 08:34:17;;;;;;;1.55;1.55;;;;;;;;;;5031792;28;20697;-43
2021/04/14 08:36:54;;;;;;;6.70;6.40;;;;;;;;;;5028109;28;20041;-43
2021/04/14 08:39:23;;;;;;;3.30;3.20;;;;;;;;;;5030549;28;20103;-45
2021/04/14 08:41:50;;;;;;;1.60;1.60;;;;;;;;;;5031542;28;20047;-45
2021/04/14 08:44:30;;;;;;;1.30;1.30;;;;;;;;;;5029638;28;20133;-45
2021/04/14 08:47:05;;;;;;;1.77;1.67;;;;;;;;;;5031084;28;20117;-43
2021/04/14 08:49:32;;;;;;;1.40;1.40;;;;;;;;;;5034448;28;20060;-43
2021/04/14 08:51:58;;;;;;;2.95;2.70;;;;;;;;;;5039289;28;20440;-43
2021/04/14 08:54:31;;;;;;;2.00;2.00;;;;;;;;;;5055123;28;20048;-44
2021/04/14 08:56:57;;;;;;;1.25;1.25;;;;;;;;;;5051482;28;20460;-44
2021/04/14 08:59:25;;;;;;;1.40;1.40;;;;;;;;;;5054857;28;20124;-44
2021/04/14 09:01:52;;;;;;;1.30;1.30;;;;;;;;;;5053404;28;20072;-43
2021/04/14 09:04:19;;;;;;;2.90;2.78;;;;;;;;;;5052903;28;20424;-43
2021/04/14 09:06:46;;;;;;;1.35;1.35;;;;;;;;;;5054771;28;20033;-44
2021/04/14 09:09:16;;;;;;;1.50;1.50;;;;;;;;;;5050864;28;20122;-44
2021/04/14 09:11:44;;;;;;;1.30;1.30;;;;;;;;;;5055078;28;20656;-45
2021/04/14 09:14:24;;;;;;;1.50;1.50;;;;;;;;;;5054184;28;20041;-45
2021/04/14 09:16:52;;;;;;;1.52;1.52;;;;;;;;;;5053010;28;20046;-43
2021/04/14 09:19:19;;;;;;;1.90;1.80;;;;;;;;;;5043913;28;20037;-43
2021/04/14 09:21:46;;;;;;;1.48;1.35;;;;;;;;;;5052704;28;20110;-44
2021/04/14 09:24:20;;;;;;;1.45;1.45;;;;;;;;;;5053495;28;20532;-42
2021/04/14 09:26:57;;;;;;;1.50;1.40;;;;;;;;;;5053835;28;20036;-44
2021/04/14 09:29:26;;;;;;;1.55;1.55;;;;;;;;;;5052378;28;20403;-47
2021/04/14 09:31:55;;;;;;;1.92;1.92;;;;;;;;;;5035887;28;20064;-43
2021/04/14 09:34:52;;;;;;;1.90;1.90;;;;;;;;;;5055611;28;20076;-44
2021/04/14 09:37:21;;;;;;;2.22;2.22;;;;;;;;;;4990399;28;20061;-43
2021/04/14 09:39:53;;;;;;;1.85;1.50;;;;;;;;;;4978056;28;20046;-45
2021/04/14 09:42:25;;;;;;;1.20;1.20;;;;;;;;;;4992387;28;20558;-45
2021/04/14 09:44:55;;;;;;;1.70;1.70;;;;;;;;;;4990921;28;20070;-44
2021/04/14 09:47:30;;;;;;;1.75;1.30;;;;;;;;;;4992367;28;20125;-43
2021/04/14 09:49:57;;;;;;;1.13;1.13;;;;;;;;;;4989959;28;20062;-43
2021/04/14 09:52:42;;;;;;;1.02;1.02;;;;;;;;;;4991561;28;20058;-46
2021/04/14 09:55:08;;;;;;;1.10;1.10;;;;;;;;;;4992585;28;20263;-46
2021/04/14 09:57:40;;;;;;;2.83;1.15;;;;;;;;;;4991097;28;20054;-43
2021/04/14 10:00:13;;;;;;;1.08;1.08;;;;;;;;;;4991546;28;20530;-43
2021/04/14 10:02:40;;;;;;;1.20;1.20;;;;;;;;;;4991818;28;20066;-44
2021/04/14 10:05:07;;;;;;;1.00;1.00;;;;;;;;;;4990152;28;20057;-45
2021/04/14 10:07:35;;;;;;;1.20;1.10;;;;;;;;;;4992063;28;20428;-46
2021/04/14 10:10:10;;;;;;;1.33;1.10;;;;;;;;;;4986528;28;20096;-43
2021/04/14 10:12:37;;;;;;;1.40;1.40;;;;;;;;;;4986456;28;20073;-43
2021/04/14 10:15:05;;;;;;;2.08;1.13;;;;;;;;;;5046593;28;20076;-43
2021/04/14 10:17:33;;;;;;;1.00;1.00;;;;;;;;;;5048265;28;20072;-43
2021/04/14 10:20:08;;;;;;;1.58;1.00;;;;;;;;;;5056469;28;20064;-44
2021/04/14 10:22:39;;;;;;;1.23;1.23;;;;;;;;;;5049821;28;20512;-44
2021/04/14 10:25:15;;;;;;;1.02;1.02;;;;;;;;;;5051635;28;20635;-45
2021/04/14 10:27:43;;;;;;;1.15;1.10;;;;;;;;;;5053524;28;20047;-45
2021/04/14 10:30:10;;;;;;;1.10;1.10;;;;;;;;;;5047557;28;20052;-44
2021/04/14 10:32:36;;;;;;;1.10;1.10;;;;;;;;;;5045020;28;20390;-44
2021/04/14 10:35:08;;;;;;;1.10;1.10;;;;;;;;;;5052242;28;20543;-45
2021/04/14 10:37:39;;;;;;;1.10;1.10;;;;;;;;;;5032647;28;20049;-44
2021/04/14 10:40:18;;;;;;;1.30;1.30;;;;;;;;;;5040872;28;20097;-44
2021/04/14 10:42:46;;;;;;;0.90;0.90;;;;;;;;;;5045665;28;20041;-44
2021/04/14 10:45:13;;;;;;;1.10;1.00;;;;;;;;;;5042907;28;20037;-43
2021/04/14 10:47:41;;;;;;;1.00;1.00;;;;;;;;;;5042287;28;20085;-44
2021/04/14 10:50:21;;;;;;;1.23;1.23;;;;;;;;;;5047763;28;20069;-43
2021/04/14 10:52:52;;;;;;;1.50;1.10;;;;;;;;;;5048940;28;20041;-46
2021/04/14 10:55:20;;;;;;;1.17;1.08;;;;;;;;;;5051810;28;20072;-44
2021/04/14 10:57:48;;;;;;;1.20;1.10;;;;;;;;;;5050535;28;20036;-46
2021/04/14 11:00:40;;;;;;;1.30;1.30;;;;;;;;;;5052549;28;20033;-47
2021/04/14 11:03:13;;;;;;;1.17;1.17;;;;;;;;;;5047788;28;20515;-46
2021/04/14 11:05:44;;;;;;;1.13;1.10;;;;;;;;;;5050794;28;20120;-45
2021/04/14 11:08:11;;;;;;;1.10;1.10;;;;;;;;;;5052179;28;20369;-46
2021/04/14 11:10:38;;;;;;;1.30;1.30;;;;;;;;;;5048994;28;20048;-43
2021/04/14 11:13:06;;;;;;;1.58;1.58;;;;;;;;;;5050022;28;20489;-43
2021/04/14 11:15:38;;;;;;;7.65;7.55;;;;;;;;;;5052425;28;20374;-43
2021/04/14 11:18:05;;;;;;;6.70;6.60;;;;;;;;;;5049454;28;20132;-48
2021/04/14 11:20:43;;;;;;;8.55;8.45;;;;;;;;;;5054129;28;20040;-47
2021/04/14 11:23:19;;;;;;;11.77;11.68;;;;;;;;;;5049995;28;20377;-49
2021/04/14 11:25:45;;;;;;;10.02;9.85;;;;;;;;;;5049219;28;20049;-47
2021/04/14 11:28:16;;;;;;;13.90;13.70;;;;;;;;;;5052020;28;20068;-46
2021/04/14 11:30:45;;;;;;;13.57;13.48;;;;;;;;;;5050526;28;20091;-48
2021/04/14 11:33:13;;;;;;;13.48;13.38;;;;;;;;;;5050504;28;20560;-48
2021/04/14 11:35:41;;;;;;;14.18;14.07;;;;;;;;;;5051849;28;20045;-46
2021/04/14 11:38:25;;;;;;;13.70;13.57;;;;;;;;;;5049541;28;20445;-48
2021/04/14 11:40:51;;;;;;;11.60;11.50;;;;;;;;;;5055665;28;20080;-46
2021/04/14 11:43:28;;;;;;;2.00;2.00;;;;;;;;;;5051476;28;20041;-43
2021/04/14 11:46:00;;;;;;;1.10;1.10;;;;;;;;;;5047272;28;20033;-46
2021/04/14 11:48:30;;;;;;;1.10;1.10;;;;;;;;;;5044691;28;20037;-46
2021/04/14 11:50:56;;;;;;;1.20;1.20;;;;;;;;;;5050190;28;20037;-48
2021/04/14 11:53:24;;;;;;;1.33;1.13;;;;;;;;;;5050173;28;20041;-45
2021/04/14 11:55:51;;;;;;;1.20;1.20;;;;;;;;;;5051053;28;20056;-46
2021/04/14 11:58:22;;;;;;;1.13;1.13;;;;;;;;;;5048700;28;20041;-47
2021/04/14 12:00:48;;;;;;;1.20;1.20;;;;;;;;;;5052056;28;20124;-46
2021/04/14 12:03:17;;;;;;;1.25;1.25;;;;;;;;;;5049855;28;20346;-45
2021/04/14 12:05:43;;;;;;;1.23;1.23;;;;;;;;;;5050735;28;20037;-48
2021/04/14 12:08:09;;;;;;;1.35;1.35;;;;;;;;;;5051787;28;20676;-46
2021/04/14 12:10:35;;;;;;;1.27;1.27;;;;;;;;;;5048282;28;20117;-44
2021/04/14 12:13:02;;;;;;;2.00;2.00;;;;;;;;;;5051478;28;20052;-46
2021/04/14 12:15:28;;;;;;;1.50;1.40;;;;;;;;;;5051618;28;20486;-44
2021/04/14 12:17:54;;;;;;;1.13;1.13;;;;;;;;;;5048028;28;20124;-44
2021/04/14 12:20:21;;;;;;;1.40;1.40;;;;;;;;;;5059841;28;20033;-46
2021/04/14 12:22:47;;;;;;;1.20;1.20;;;;;;;;;;5048994;28;20036;-46
2021/04/14 12:25:14;;;;;;;3.97;3.97;;;;;;;;;;5049693;28;20092;-46
2021/04/14 12:27:40;;;;;;;4.38;4.38;;;;;;;;;;5051408;28;20389;-46
2021/04/14 12:30:07;;;;;;;1.35;1.35;;;;;;;;;;5053362;28;20136;-44
2021/04/14 12:32:46;;;;;;;1.40;1.40;;;;;;;;;;5054721;28;20489;-45
2021/04/14 12:35:13;;;;;;;1.70;1.60;;;;;;;;;;5051996;28;20043;-45
2021/04/14 12:37:39;;;;;;;1.23;1.20;;;;;;;;;;5054132;28;20041;-44
2021/04/14 12:40:09;;;;;;;1.00;1.00;;;;;;;;;;5058567;28;20369;-43
2021/04/14 12:42:51;;;;;;;1.20;1.20;;;;;;;;;;5054754;28;20496;-44
2021/04/14 12:45:17;;;;;;;1.30;1.30;;;;;;;;;;5053529;28;20033;-45
2021/04/14 12:47:43;;;;;;;1.00;1.00;;;;;;;;;;5053575;28;20037;-43
2021/04/14 12:50:10;;;;;;;1.05;1.05;;;;;;;;;;5052879;28;20044;-43
2021/04/14 12:52:36;;;;;;;1.10;1.10;;;;;;;;;;5053564;28;20099;-44
2021/04/14 12:55:09;;;;;;;1.00;1.00;;;;;;;;;;5050141;28;20051;-43
2021/04/14 12:57:39;;;;;;;1.05;1.05;;;;;;;;;;5040847;28;20053;-41
2021/04/14 13:00:05;;;;;;;1.77;1.02;;;;;;;;;;5052861;28;20045;-42
2021/04/14 13:02:38;;;;;;;1.00;1.00;;;;;;;;;;5053010;28;20051;-41
2021/04/14 13:05:09;;;;;;;1.00;1.00;;;;;;;;;;5054147;28;20549;-43
2021/04/14 13:07:50;;;;;;;1.10;1.10;;;;;;;;;;5054287;28;20040;-40
2021/04/14 13:10:19;;;;;;;1.10;1.10;;;;;;;;;;5035942;28;20350;-41
2021/04/14 13:12:45;;;;;;;1.45;1.40;;;;;;;;;;5054669;28;20410;-43
2021/04/14 13:15:15;;;;;;;1.23;1.23;;;;;;;;;;5051992;28;20052;-41
2021/04/14 13:17:51;;;;;;;2.00;2.00;;;;;;;;;;5054379;28;20068;-40
2021/04/14 13:20:20;;;;;;;3.83;3.83;;;;;;;;;;5052378;28;20076;-40
2021/04/14 13:22:53;;;;;;;3.40;3.40;;;;;;;;;;5056036;28;20037;-41
2021/04/14 13:25:41;;;;;;;1.85;1.85;;;;;;;;;;5054187;28;20497;-40
2021/04/14 13:28:10;;;;;;;1.50;1.50;;;;;;;;;;5053917;28;20044;-41
2021/04/14 13:30:42;;;;;;;1.00;1.00;;;;;;;;;;5050886;28;20044;-40
2021/04/14 13:33:11;;;;;;;1.10;1.10;;;;;;;;;;5053383;28;20452;-40
2021/04/14 13:35:42;;;;;;;1.10;1.10;;;;;;;;;;5052106;28;20041;-40
2021/04/14 13:38:18;;;;;;;1.50;1.10;;;;;;;;;;5050901;28;20437;-42
2021/04/14 13:40:51;;;;;;;1.70;1.10;;;;;;;;;;5057428;28;20523;-41
2021/04/14 13:43:29;;;;;;;1.20;1.20;;;;;;;;;;5052168;28;20047;-42
2021/04/14 13:45:58;;;;;;;1.10;1.10;;;;;;;;;;5052745;28;20493;-41
2021/04/14 13:48:43;;;;;;;1.00;1.00;;;;;;;;;;5053074;28;20029;-40
2021/04/14 13:51:11;;;;;;;1.00;1.00;;;;;;;;;;5052257;28;20497;-40
2021/04/14 13:53:39;;;;;;;1.13;1.00;;;;;;;;;;5051766;28;20103;-42
2021/04/14 13:56:12;;;;;;;1.13;1.13;;;;;;;;;;5050827;28;20048;-41
2021/04/14 13:58:38;;;;;;;;;;;;;;;;;;5052755;28;20045;-41
2021/04/14 14:01:06;;;;;;;2.60;1.10;;;;;;;;;;5052917;28;19920;-41
2021/04/14 14:03:33;;;;;;;1.00;1.00;;;;;;;;;;5052255;28;20045;-42
2021/04/14 14:06:00;;;;;;;0.95;0.95;;;;;;;;;;5052811;28;20033;-41
2021/04/14 14:08:33;;;;;;;1.10;1.00;;;;;;;;;;5051674;28;20482;-41
2021/04/14 14:11:29;;;;;;;0.90;0.90;;;;;;;;;;5051369;28;20531;-43
2021/04/14 14:13:57;;;;;;;0.90;0.90;;;;;;;;;;4971640;28;20071;-42
2021/04/14 14:16:31;;;;;;;1.00;1.00;;;;;;;;;;4970314;28;20086;-40
2021/04/14 14:18:59;;;;;;;0.90;0.90;;;;;;;;;;4971323;28;20860;-40
2021/04/14 14:21:26;;;;;;;1.00;1.00;;;;;;;;;;4971358;28;20061;-41
2021/04/14 14:23:52;;;;;;;1.10;1.10;;;;;;;;;;4970515;28;20053;-41
2021/04/14 14:26:26;;;;;;;0.95;0.95;;;;;;;;;;4971862;28;20039;-40
2021/04/14 14:28:52;;;;;;;1.08;1.08;;;;;;;;;;4962924;28;20059;-40
2021/04/14 14:31:19;;;;;;;1.00;1.00;;;;;;;;;;4947945;28;20053;-42
2021/04/14 14:33:45;;;;;;;1.10;1.10;;;;;;;;;;4972353;28;20069;-41
2021/04/14 14:36:15;;;;;;;1.20;1.20;;;;;;;;;;4969963;28;20054;-42
2021/04/14 14:38:45;;;;;;;1.10;1.10;;;;;;;;;;4970925;28;20161;-41
2021/04/14 14:41:14;;;;;;;1.30;1.30;;;;;;;;;;4970701;28;20074;-42
2021/04/14 14:43:42;;;;;;;2.20;2.20;;;;;;;;;;4962836;28;20550;-41
2021/04/14 14:46:10;;;;;;;1.13;1.13;;;;;;;;;;4971145;28;20043;-41